Landels-Hill Big Creek Reserve Entrance, California Weather observations

Data are for 10 minute period ending at time listed.
 Day   Time   Solar   Ave.   Ave.  Ave.  Vector  Max.   Baro.   Total    
  of    of     Rad.   Air    Rel.  Wind   Wind   Wind  Press.  Precip.   
Year   Day            Temp.  Hum.  Speed  Dir.   Gust                    
2017   (PST)  Kw/m2    F      %     mph   deg.    mph    mb.     in.     
-------------------------------------------------------------------------
  83   17:00   0.01   55.0    92    0.5   312     2.5   1018.6    0.00 
  83   17:10   0.01   55.0    92    0.7   346     3.0   1018.5    0.00 
  83   17:20   0.01   55.2    92    1.8   289     6.5   1018.5    0.02 
  83   17:30   0.01   55.3    90    1.6    29     4.0   1018.6    0.00 
  83   17:40   0.01   55.3    90    0.6    49     2.8   1018.7    0.00 
  83   17:50   0.01   55.0    91    1.0    62     3.0   1018.5    0.00 
  83   18:00   0.01   54.9    92    0.8    22     2.5   1018.4    0.01 
  83   18:10   0.00   54.8    92    1.6    13     3.3   1018.3    0.00 
  83   18:20   0.00   54.7    93    1.5     7     3.8   1018.2    0.00 
  83   18:30   0.00   54.6    93    0.9    39     2.3   1018.3    0.00 
  83   18:40   0.00   54.6    93    1.3    16     3.4   1018.3    0.03 
  83   18:50   0.00   54.5    94    1.8    14     3.4   1018.3    0.02 
  83   19:00   0.00   54.4    94    1.1    27     2.6   1018.3    0.02 
  83   19:10   0.00   54.5    94    1.2     7     3.6   1018.4    0.01 
  83   19:20   0.00   54.5    94    0.1    39     1.1   1018.4    0.02 
  83   19:30   0.00   54.4    94    1.7    23     4.1   1018.3    0.02 
  83   19:40   0.00   54.4    94    2.5    16     4.7   1018.2    0.00 
  83   19:50   0.00   54.4    94    1.7    34     3.4   1018.3    0.01 
  83   20:00   0.00   54.4    94    2.1     8     5.0   1018.2    0.00 
  83   20:10   0.00   54.4    95    1.1    30     3.9   1018.3    0.00 
  83   20:20   0.00   54.5    95    0.8    37     2.1   1018.4    0.01 
  83   20:30   0.00   54.5    95    1.4   325     3.5   1018.5    0.00 
  83   20:40   0.00   54.6    95    0.4   317     2.7   1018.5    0.01 
  83   20:50   0.00   54.5    95    1.0   316     2.9   1018.4    0.00 
  83   21:00   0.00   54.4    95    0.3    33     1.7   1018.5    0.01 
  83   21:10   0.00   54.4    95    0.9     2     2.7   1018.4    0.00 
  83   21:20   0.00   54.4    95    0.4    22     2.5   1018.5    0.00 
  83   21:30   0.00   54.4    95    0.5   280     2.1   1018.6    0.00 
  83   21:40   0.00   54.3    95    1.6    26     2.8   1018.4    0.02 
  83   21:50   0.00   54.4    95    0.7     6     2.1   1018.3    0.01 
  83   22:00   0.00   54.4    95    0.3   122     2.3   1018.3    0.00 
  83   22:10   0.00   54.4    95    0.6    28     2.2   1018.3    0.00 
  83   22:20   0.00   54.3    95    0.8    17     2.1   1018.2    0.03 
  83   22:30   0.00   54.3    95    1.5     8     3.4   1018.0    0.03 
  83   22:40   0.00   54.2    95    1.3    23     2.6   1018.0    0.01 
  83   22:50   0.00   54.3    95    0.0   348     0.7   1018.0    0.01 
  83   23:00   0.00   54.2    95    0.7    12     1.7   1017.9    0.00 
  83   23:10   0.00   54.1    95    0.5    33     1.7   1017.8    0.00 
  83   23:20   0.00   54.1    95    0.3    44     1.5   1017.7    0.00 
  83   23:30   0.00   54.1    95    0.5    29     1.6   1017.7    0.02 
  83   23:40   0.00   54.1    95    1.2    30     2.7   1017.5    0.00 
  83   23:50   0.00   54.0    95    0.9    35     2.0   1017.4    0.00 
  84    0:00   0.00   54.0    95    0.8    32     2.1   1017.4    0.00 
  84    0:10   0.00   54.0    95    0.4   328     2.9   1017.5    0.01 
  84    0:20   0.00   54.0    96    0.0    42     0.5   1017.4    0.01 
  84    0:30   0.00   54.0    96    0.1    97     0.9   1017.5    0.01 
  84    0:40   0.00   53.7    95    0.7   167     2.0   1017.5    0.00 
  84    0:50   0.00   53.4    96    0.1   265     1.2   1017.4    0.01 
  84    1:00   0.00   53.5    96    1.8    32     4.1   1017.3    0.00 
  84    1:10   0.00   53.9    96    1.5    14     3.8   1017.2    0.00 
  84    1:20   0.00   53.9    96    1.2    13     3.7   1017.3    0.00 
  84    1:30   0.00   53.9    96    0.5    34     1.5   1017.4    0.00 
  84    1:40   0.00   53.9    96    0.8   106     2.6   1017.3    0.00 
  84    1:50   0.00   53.7    96    0.8   180     2.9   1017.4    0.00 
  84    2:00   0.00   53.6    96    0.6   183     2.0   1017.3    0.00 
  84    2:10   0.00   53.6    96    0.3   176     2.0   1017.2    0.00 
  84    2:20   0.00   53.6    96    0.2    78     1.4   1017.1    0.00 
  84    2:30   0.00   53.6    96    0.0     0     0.0   1017.0    0.00 
  84    2:40   0.00   53.7    96    0.0     0     0.0   1017.0    0.00 
  84    2:50   0.00   53.6    96    0.0     0     0.0   1016.9    0.00 
  84    3:00   0.00   53.7    96    0.0     0     0.0   1016.7    0.01 
  84    3:10   0.00   53.6    96    0.1     9     0.9   1016.7    0.00 
  84    3:20   0.00   53.6    96    0.3    37     1.8   1016.7    0.00 
  84    3:30   0.00   53.6    96    0.0     0     0.0   1016.7    0.00 
  84    3:40   0.00   53.6    96    0.1   349     1.0   1016.7    0.00 
  84    3:50   0.00   53.6    96    0.3    70     1.5   1016.6    0.00 
  84    4:00   0.00   53.5    96    0.4    64     1.6   1016.6    0.00 
  84    4:10   0.00   53.5    96    0.2    70     1.1   1016.5    0.00 
  84    4:20   0.00   53.4    96    0.0    31     0.5   1016.5    0.00 
  84    4:30   0.00   53.3    96    0.5    38     1.5   1016.4    0.00 
  84    4:40   0.00   52.8    96    0.7    57     1.6   1016.4    0.00 
  84    4:50   0.00   52.6    96    0.6    24     1.5   1016.5    0.00 
  84    5:00   0.00   52.6    96    1.3    30     6.3   1016.5    0.00 
  84    5:10   0.00   52.4    96    1.1    48     2.4   1016.5    0.00 
  84    5:20   0.00   52.1    96    0.7    68     1.8   1016.5    0.00 
  84    5:30   0.00   51.8    96    1.9    56     3.5   1016.5    0.00 
  84    5:40   0.00   51.6    96    1.8    51     3.4   1016.5    0.00 
  84    5:50   0.00   51.4    96    1.3    59     2.6   1016.6    0.00 
  84    6:00   0.00   51.2    96    1.8    23     4.1   1016.6    0.00 
  84    6:10   0.01   50.9    96    1.9    26     3.8   1016.7    0.00 
  84    6:20   0.01   50.5    96    1.2    45     2.9   1016.6    0.00 
  84    6:30   0.01   50.2    96    3.1   356     6.5   1016.6    0.00 
  84    6:40   0.01   50.0    96    4.1     4     9.1   1016.5    0.00 
  84    6:50   0.01   49.8    96    3.9   356     7.2   1016.4    0.00 
  84    7:00   0.01   49.7    96    3.9   353     7.4   1016.4    0.00 
  84    7:10   0.02   49.7    96    3.7   359     6.4   1016.5    0.00 
  84    7:20   0.03   49.7    96    2.3    23     5.2   1016.6    0.00 
  84    7:30   0.03   49.8    96    2.1    54     4.4   1016.7    0.00 
  84    7:40   0.03   50.0    96    1.6    40     3.7   1016.7    0.00 
  84    7:50   0.03   50.1    96    1.7    46     4.0   1016.8    0.00 
  84    8:00   0.03   50.2    96    1.7    34     3.7   1016.8    0.00 
  84    8:10   0.04   50.7    96    1.4    31     3.4   1016.9    0.00 
  84    8:20   0.05   51.2    96    1.4     9     3.3   1016.9    0.00 
  84    8:30   0.06   51.7    96    1.5   358     2.9   1016.9    0.00 
  84    8:40   0.08   52.1    96    0.3    89     1.7   1016.9    0.00 
  84    8:50   0.08   52.9    96    0.4   158     1.6   1016.9    0.00 
  84    9:00   0.08   53.1    95    0.7   156     1.8   1017.1    0.00 
  84    9:10   0.08   53.1    95    0.6   137     1.2   1017.3    0.00 
  84    9:20   0.09   53.2    94    1.1   129     1.9   1017.4    0.00 
  84    9:30   0.09   53.5    94    0.2   147     1.5   1017.5    0.00 
  84    9:40   0.29   53.9    93    0.7   164     2.5   1017.5    0.00 
  84    9:50   0.51   55.4    92    1.0   135     2.4   1017.6    0.00 
  84   10:00   0.52   56.4    88    1.8   256     5.0   1017.4    0.00 
  84   10:10   0.61   57.3    85    1.5   245     3.7   1017.3    0.00 
  84   10:20   0.63   57.5    82    2.9   246     5.6   1017.4    0.00 
  84   10:30   0.66   57.2    83    2.6   247     5.3   1017.5    0.00 
  84   10:40   0.70   59.5    82    0.6   219     2.3   1017.6    0.00 
  84   10:50   0.77   59.9    79    1.5   131     3.5   1017.9    0.00 
  84   11:00   0.80   59.8    80    1.3   157     4.2   1017.9    0.00 
  84   11:10   0.80   60.1    76    1.6   157     4.9   1017.9    0.00 
  84   11:20   0.83   60.3    75    1.9   244     5.9   1017.8    0.00 
  84   11:30   0.81   59.6    77    2.7   255     5.4   1017.8    0.00 
  84   11:40   0.87   60.2    76    1.3   221     3.6   1017.8    0.00 
  84   11:50   0.83   60.9    77    1.2   205     3.5   1017.8    0.00 
  84   12:00   0.67   60.4    74    1.5   179     4.0   1017.7    0.00 
  84   12:10   0.80   60.4    75    1.7   172     6.0   1017.5    0.00 
  84   12:20   0.81   59.3    76    4.4   153    10.3   1017.5    0.00 
  84   12:30   0.83   58.7    78    4.9   165    13.4   1017.3    0.00 
  84   12:40   0.86   58.3    79    6.5   177    12.7   1017.0    0.00 
  84   12:50   0.88   58.3    79    7.2   172    16.0   1016.7    0.00 
  84   13:00   0.88   58.2    78    6.5   164    13.2   1016.6    0.00 
  84   13:10   0.80   58.1    77    7.1   175    15.2   1016.6    0.00 
  84   13:20   0.88   58.4    77    7.2   169    18.2   1016.5    0.00 
  84   13:30   0.94   58.9    76    6.3   168    14.0   1016.4    0.00 
  84   13:40   0.79   59.5    74    5.3   176    11.8   1016.3    0.00 
  84   13:50   0.66   58.8    75    5.4   165    16.9   1016.3    0.00 
  84   14:00   0.75   59.0    75    5.7   175    12.7   1016.3    0.00 
  84   14:10   0.77   58.6    75    5.8   174    12.5   1016.3    0.00 
  84   14:20   0.78   58.8    75    6.2   152    12.0   1016.2    0.00 
  84   14:30   0.64   58.9    74    7.3   176    13.7   1016.2    0.00 
  84   14:40   0.38   58.4    74    6.0   168    13.7   1016.3    0.00 
  84   14:50   0.49   58.2    76    5.5   173    11.6   1016.2    0.00 
  84   15:00   0.61   59.2    73    4.3   183    11.1   1016.1    0.00 
  84   15:10   0.46   58.9    72    5.6   170    14.8   1016.2    0.00 
  84   15:20   0.61   59.1    71    6.0   159    10.7   1016.0    0.00 
  84   15:30   0.49   59.2    71    4.5   109     9.5   1015.9    0.00 
  84   15:40   0.51   59.8    70    4.3    31    13.4   1015.9    0.00 
  84   15:50   0.48   59.9    69    4.3   168    11.5   1015.9    0.00 
  84   16:00   0.45   59.8    68    5.8    57    12.7   1015.9    0.00 
  84   16:10   0.42   59.6    68    5.1   174    11.3   1015.9    0.00 
  84   16:20   0.38   58.9    68    6.0   169    13.4   1015.8    0.00 
  84   16:30   0.35   58.9    68    6.3   167    15.0   1015.8    0.00 
  84   16:40   0.33   58.5    70    4.3   158    11.3   1015.8    0.00 
  84   16:50   0.29   59.1    69    3.6    74    12.0   1015.7    0.00 

Return to Big Creek Reserve Entrance graphs page.


Western Regional Climate Center,wrcc@dri.edu